sensor_id;sensor_type;location;lat;lon;timestamp;temperature;humidity
30063;DHT22;16889;67.864;24.990;2023-03-23T00:04:13;-20.10;99.90
30063;DHT22;16889;67.864;24.990;2023-03-23T00:08:59;-20.50;99.90
30063;DHT22;16889;67.864;24.990;2023-03-23T00:13:49;-20.60;99.90
30063;DHT22;16889;67.864;24.990;2023-03-23T00:18:38;-20.60;99.90
30063;DHT22;16889;67.864;24.990;2023-03-23T00:23:25;-20.80;99.90
30063;DHT22;16889;67.864;24.990;2023-03-23T00:28:11;-20.90;99.90
30063;DHT22;16889;67.864;24.990;2023-03-23T00:32:58;-20.80;99.90
30063;DHT22;16889;67.864;24.990;2023-03-23T00:37:44;-21.00;99.90
30063;DHT22;16889;67.864;24.990;2023-03-23T00:42:30;-21.00;99.90
30063;DHT22;16889;67.864;24.990;2023-03-23T00:47:22;-21.00;99.90
30063;DHT22;16889;67.864;24.990;2023-03-23T00:52:09;-21.20;99.90
30063;DHT22;16889;67.864;24.990;2023-03-23T00:56:56;-21.30;99.90
30063;DHT22;16889;67.864;24.990;2023-03-23T01:01:42;-21.50;99.90
30063;DHT22;16889;67.864;24.990;2023-03-23T01:06:28;-21.80;99.90
30063;DHT22;16889;67.864;24.990;2023-03-23T01:11:17;-21.90;99.90
30063;DHT22;16889;67.864;24.990;2023-03-23T01:16:03;-22.00;99.90
30063;DHT22;16889;67.864;24.990;2023-03-23T01:20:49;-21.80;99.90
30063;DHT22;16889;67.864;24.990;2023-03-23T01:25:36;-21.80;99.90
30063;DHT22;16889;67.864;24.990;2023-03-23T01:30:23;-22.10;99.90
30063;DHT22;16889;67.864;24.990;2023-03-23T01:35:09;-22.00;99.90
30063;DHT22;16889;67.864;24.990;2023-03-23T01:39:57;-22.20;99.90
30063;DHT22;16889;67.864;24.990;2023-03-23T01:49:42;-22.30;99.90
30063;DHT22;16889;67.864;24.990;2023-03-23T01:54:29;-22.30;99.90
30063;DHT22;16889;67.864;24.990;2023-03-23T01:59:16;-22.30;99.90
30063;DHT22;16889;67.864;24.990;2023-03-23T02:04:03;-22.40;99.90
30063;DHT22;16889;67.864;24.990;2023-03-23T02:08:51;-22.50;99.90
30063;DHT22;16889;67.864;24.990;2023-03-23T02:13:38;-22.80;99.90
30063;DHT22;16889;67.864;24.990;2023-03-23T02:23:50;-23.10;99.90
30063;DHT22;16889;67.864;24.990;2023-03-23T02:34:05;-23.20;99.90
30063;DHT22;16889;67.864;24.990;2023-03-23T02:43:55;-23.10;99.90
30063;DHT22;16889;67.864;24.990;2023-03-23T02:48:44;-23.30;99.90
30063;DHT22;16889;67.864;24.990;2023-03-23T02:53:33;-23.30;99.90
30063;DHT22;16889;67.864;24.990;2023-03-23T02:58:20;-23.40;99.90
30063;DHT22;16889;67.864;24.990;2023-03-23T03:03:13;-23.50;99.90
30063;DHT22;16889;67.864;24.990;2023-03-23T03:08:12;-23.40;99.90
30063;DHT22;16889;67.864;24.990;2023-03-23T03:13:14;-23.30;99.90
30063;DHT22;16889;67.864;24.990;2023-03-23T03:18:49;-23.40;99.90
30063;DHT22;16889;67.864;24.990;2023-03-23T03:23:33;-23.40;99.90
30063;DHT22;16889;67.864;24.990;2023-03-23T03:28:21;-23.30;99.90
30063;DHT22;16889;67.864;24.990;2023-03-23T03:33:08;-23.40;99.90
30063;DHT22;16889;67.864;24.990;2023-03-23T03:37:54;-23.40;99.90
30063;DHT22;16889;67.864;24.990;2023-03-23T03:42:42;-23.50;99.90
30063;DHT22;16889;67.864;24.990;2023-03-23T03:47:28;-23.70;99.90
30063;DHT22;16889;67.864;24.990;2023-03-23T03:52:14;-23.80;99.90
30063;DHT22;16889;67.864;24.990;2023-03-23T03:57:00;-23.80;99.90
30063;DHT22;16889;67.864;24.990;2023-03-23T04:01:46;-23.80;99.90
30063;DHT22;16889;67.864;24.990;2023-03-23T04:06:33;-23.90;99.90
30063;DHT22;16889;67.864;24.990;2023-03-23T04:11:21;-24.00;99.90
30063;DHT22;16889;67.864;24.990;2023-03-23T04:16:07;-23.80;99.90
30063;DHT22;16889;67.864;24.990;2023-03-23T04:20:54;-23.70;99.90
30063;DHT22;16889;67.864;24.990;2023-03-23T04:25:45;-23.70;99.90
30063;DHT22;16889;67.864;24.990;2023-03-23T04:30:32;-23.70;99.90
30063;DHT22;16889;67.864;24.990;2023-03-23T04:35:19;-24.00;99.90
30063;DHT22;16889;67.864;24.990;2023-03-23T04:40:07;-24.40;99.90
30063;DHT22;16889;67.864;24.990;2023-03-23T04:44:58;-24.00;99.90
30063;DHT22;16889;67.864;24.990;2023-03-23T04:49:45;-23.80;99.90
30063;DHT22;16889;67.864;24.990;2023-03-23T04:54:31;-24.00;99.90
30063;DHT22;16889;67.864;24.990;2023-03-23T04:59:17;-24.30;99.90
30063;DHT22;16889;67.864;24.990;2023-03-23T05:04:03;-24.90;99.90
30063;DHT22;16889;67.864;24.990;2023-03-23T05:08:50;-25.10;99.90
30063;DHT22;16889;67.864;24.990;2023-03-23T05:13:35;-25.20;99.90
30063;DHT22;16889;67.864;24.990;2023-03-23T05:18:22;-25.10;99.90
30063;DHT22;16889;67.864;24.990;2023-03-23T05:23:09;-25.10;99.90
30063;DHT22;16889;67.864;24.990;2023-03-23T05:27:55;-24.80;99.90
30063;DHT22;16889;67.864;24.990;2023-03-23T05:32:41;-24.40;99.90
30063;DHT22;16889;67.864;24.990;2023-03-23T05:37:28;-24.20;99.90
30063;DHT22;16889;67.864;24.990;2023-03-23T05:42:23;-24.10;99.90
30063;DHT22;16889;67.864;24.990;2023-03-23T05:47:09;-23.40;99.90
30063;DHT22;16889;67.864;24.990;2023-03-23T05:51:56;-23.00;99.90
30063;DHT22;16889;67.864;24.990;2023-03-23T05:56:42;-22.70;99.90
30063;DHT22;16889;67.864;24.990;2023-03-23T06:01:29;-22.90;99.90
30063;DHT22;16889;67.864;24.990;2023-03-23T06:06:15;-23.10;99.90
30063;DHT22;16889;67.864;24.990;2023-03-23T06:11:01;-23.20;99.90
30063;DHT22;16889;67.864;24.990;2023-03-23T06:15:47;-22.80;99.90
30063;DHT22;16889;67.864;24.990;2023-03-23T06:20:34;-22.20;99.90
30063;DHT22;16889;67.864;24.990;2023-03-23T06:25:21;-21.50;99.90
30063;DHT22;16889;67.864;24.990;2023-03-23T06:30:08;-21.20;99.90
30063;DHT22;16889;67.864;24.990;2023-03-23T06:34:55;-20.80;99.90
30063;DHT22;16889;67.864;24.990;2023-03-23T06:39:42;-20.30;99.90
30063;DHT22;16889;67.864;24.990;2023-03-23T06:44:28;-20.00;99.90
30063;DHT22;16889;67.864;24.990;2023-03-23T06:49:14;-19.50;99.90
30063;DHT22;16889;67.864;24.990;2023-03-23T06:54:01;-18.70;99.90
30063;DHT22;16889;67.864;24.990;2023-03-23T06:58:47;-18.30;99.90
30063;DHT22;16889;67.864;24.990;2023-03-23T07:03:33;-17.90;99.90
30063;DHT22;16889;67.864;24.990;2023-03-23T07:08:20;-17.10;99.90
30063;DHT22;16889;67.864;24.990;2023-03-23T07:13:06;-16.30;99.90
30063;DHT22;16889;67.864;24.990;2023-03-23T07:17:52;-14.30;99.90
30063;DHT22;16889;67.864;24.990;2023-03-23T07:22:40;-11.70;90.30
30063;DHT22;16889;67.864;24.990;2023-03-23T07:27:26;-13.10;89.00
30063;DHT22;16889;67.864;24.990;2023-03-23T07:32:12;-13.90;96.20
30063;DHT22;16889;67.864;24.990;2023-03-23T07:36:59;-13.30;99.90
30063;DHT22;16889;67.864;24.990;2023-03-23T07:41:45;-12.30;99.90
30063;DHT22;16889;67.864;24.990;2023-03-23T07:46:32;-11.90;99.90
30063;DHT22;16889;67.864;24.990;2023-03-23T07:51:18;-12.30;99.90
30063;DHT22;16889;67.864;24.990;2023-03-23T07:56:05;-12.60;99.90
30063;DHT22;16889;67.864;24.990;2023-03-23T08:00:52;-12.40;99.90
30063;DHT22;16889;67.864;24.990;2023-03-23T08:05:39;-11.50;99.90
30063;DHT22;16889;67.864;24.990;2023-03-23T08:10:27;-10.20;99.90
30063;DHT22;16889;67.864;24.990;2023-03-23T08:15:13;-8.70;98.20
30063;DHT22;16889;67.864;24.990;2023-03-23T08:20:03;-7.10;91.80
30063;DHT22;16889;67.864;24.990;2023-03-23T08:24:58;-4.80;76.20
30063;DHT22;16889;67.864;24.990;2023-03-23T08:29:46;-2.70;59.00
30063;DHT22;16889;67.864;24.990;2023-03-23T08:34:33;-2.60;56.90
30063;DHT22;16889;67.864;24.990;2023-03-23T08:39:19;-5.10;60.50
30063;DHT22;16889;67.864;24.990;2023-03-23T08:44:08;-7.20;70.20
30063;DHT22;16889;67.864;24.990;2023-03-23T08:48:54;-8.70;79.90
30063;DHT22;16889;67.864;24.990;2023-03-23T08:53:40;-9.70;90.70
30063;DHT22;16889;67.864;24.990;2023-03-23T08:58:27;-10.30;94.40
30063;DHT22;16889;67.864;24.990;2023-03-23T09:03:14;-11.10;99.90
30063;DHT22;16889;67.864;24.990;2023-03-23T09:08:01;-11.10;99.90
30063;DHT22;16889;67.864;24.990;2023-03-23T09:12:49;-10.40;99.90
30063;DHT22;16889;67.864;24.990;2023-03-23T09:17:47;-9.70;99.90
30063;DHT22;16889;67.864;24.990;2023-03-23T09:22:33;-9.80;99.90
30063;DHT22;16889;67.864;24.990;2023-03-23T09:27:19;-9.20;99.90
30063;DHT22;16889;67.864;24.990;2023-03-23T09:32:06;-8.80;99.90
30063;DHT22;16889;67.864;24.990;2023-03-23T09:36:53;-8.20;99.20
30063;DHT22;16889;67.864;24.990;2023-03-23T09:42:19;-8.00;98.20
30063;DHT22;16889;67.864;24.990;2023-03-23T09:47:28;-8.30;97.10
30063;DHT22;16889;67.864;24.990;2023-03-23T09:52:18;-8.30;97.30
30063;DHT22;16889;67.864;24.990;2023-03-23T09:57:54;-6.20;94.70
30063;DHT22;16889;67.864;24.990;2023-03-23T10:02:32;-5.20;85.60
30063;DHT22;16889;67.864;24.990;2023-03-23T10:07:22;-4.80;84.40
30063;DHT22;16889;67.864;24.990;2023-03-23T10:17:47;-2.50;67.80
30063;DHT22;16889;67.864;24.990;2023-03-23T10:22:40;-4.20;72.20
30063;DHT22;16889;67.864;24.990;2023-03-23T10:32:40;-6.20;82.90
30063;DHT22;16889;67.864;24.990;2023-03-23T10:37:31;-6.60;87.30
30063;DHT22;16889;67.864;24.990;2023-03-23T10:47:12;-6.60;89.60
30063;DHT22;16889;67.864;24.990;2023-03-23T10:52:05;-6.20;88.30
30063;DHT22;16889;67.864;24.990;2023-03-23T10:56:52;-5.60;86.60
30063;DHT22;16889;67.864;24.990;2023-03-23T11:01:38;-5.70;86.40
30063;DHT22;16889;67.864;24.990;2023-03-23T11:06:29;-5.60;85.20
30063;DHT22;16889;67.864;24.990;2023-03-23T11:11:25;-5.30;87.10
30063;DHT22;16889;67.864;24.990;2023-03-23T11:16:26;-2.10;74.50
30063;DHT22;16889;67.864;24.990;2023-03-23T11:21:14;-1.80;63.80
30063;DHT22;16889;67.864;24.990;2023-03-23T11:26:29;-3.40;69.60
30063;DHT22;16889;67.864;24.990;2023-03-23T11:31:16;-5.10;76.20
30063;DHT22;16889;67.864;24.990;2023-03-23T11:36:03;-5.40;78.30
30063;DHT22;16889;67.864;24.990;2023-03-23T11:40:51;-5.20;75.20
30063;DHT22;16889;67.864;24.990;2023-03-23T11:45:41;-5.00;72.60
30063;DHT22;16889;67.864;24.990;2023-03-23T11:51:00;-5.20;72.20
30063;DHT22;16889;67.864;24.990;2023-03-23T11:55:51;-5.50;74.10
30063;DHT22;16889;67.864;24.990;2023-03-23T12:31:25;-4.70;69.00
30063;DHT22;16889;67.864;24.990;2023-03-23T12:36:40;-4.90;69.60
30063;DHT22;16889;67.864;24.990;2023-03-23T12:41:39;-4.40;65.50
30063;DHT22;16889;67.864;24.990;2023-03-23T12:51:58;-4.60;67.00
30063;DHT22;16889;67.864;24.990;2023-03-23T12:57:12;-4.50;63.70
30063;DHT22;16889;67.864;24.990;2023-03-23T13:07:20;-4.90;64.00
30063;DHT22;16889;67.864;24.990;2023-03-23T13:12:09;-5.10;64.70
30063;DHT22;16889;67.864;24.990;2023-03-23T13:26:53;-5.30;64.50
30063;DHT22;16889;67.864;24.990;2023-03-23T13:31:43;-5.50;66.40
30063;DHT22;16889;67.864;24.990;2023-03-23T13:36:51;-5.40;64.50
30063;DHT22;16889;67.864;24.990;2023-03-23T13:41:47;-5.50;64.20
30063;DHT22;16889;67.864;24.990;2023-03-23T13:46:33;-5.70;65.80
30063;DHT22;16889;67.864;24.990;2023-03-23T13:51:46;-5.60;65.50
30063;DHT22;16889;67.864;24.990;2023-03-23T13:56:57;-5.60;64.10
30063;DHT22;16889;67.864;24.990;2023-03-23T14:01:42;-5.70;65.30
30063;DHT22;16889;67.864;24.990;2023-03-23T14:06:34;-5.70;63.00
30063;DHT22;16889;67.864;24.990;2023-03-23T14:11:28;-5.80;62.60
30063;DHT22;16889;67.864;24.990;2023-03-23T14:16:23;-5.70;61.90
30063;DHT22;16889;67.864;24.990;2023-03-23T14:21:17;-6.00;69.60
30063;DHT22;16889;67.864;24.990;2023-03-23T14:26:17;-6.10;70.70
30063;DHT22;16889;67.864;24.990;2023-03-23T14:31:04;-6.30;70.40
30063;DHT22;16889;67.864;24.990;2023-03-23T14:35:50;-6.60;69.70
30063;DHT22;16889;67.864;24.990;2023-03-23T14:40:37;-7.00;70.90
30063;DHT22;16889;67.864;24.990;2023-03-23T14:45:24;-7.30;71.00
30063;DHT22;16889;67.864;24.990;2023-03-23T14:50:30;-7.60;72.60
30063;DHT22;16889;67.864;24.990;2023-03-23T14:55:20;-8.00;74.90
30063;DHT22;16889;67.864;24.990;2023-03-23T15:00:15;-7.90;76.80
30063;DHT22;16889;67.864;24.990;2023-03-23T15:05:17;-8.10;76.80
30063;DHT22;16889;67.864;24.990;2023-03-23T15:10:07;-8.20;78.00
30063;DHT22;16889;67.864;24.990;2023-03-23T15:14:59;-8.20;78.70
30063;DHT22;16889;67.864;24.990;2023-03-23T15:19:46;-8.30;78.50
30063;DHT22;16889;67.864;24.990;2023-03-23T15:24:37;-8.50;78.90
30063;DHT22;16889;67.864;24.990;2023-03-23T15:29:23;-8.70;81.10
30063;DHT22;16889;67.864;24.990;2023-03-23T15:34:19;-8.60;82.20
30063;DHT22;16889;67.864;24.990;2023-03-23T15:39:06;-8.60;81.30
30063;DHT22;16889;67.864;24.990;2023-03-23T15:43:54;-8.80;82.10
30063;DHT22;16889;67.864;24.990;2023-03-23T15:53:42;-9.10;81.70
30063;DHT22;16889;67.864;24.990;2023-03-23T15:58:29;-9.30;83.40
30063;DHT22;16889;67.864;24.990;2023-03-23T16:03:28;-9.40;83.30
30063;DHT22;16889;67.864;24.990;2023-03-23T16:08:15;-9.50;85.80
30063;DHT22;16889;67.864;24.990;2023-03-23T16:13:01;-9.60;86.90
30063;DHT22;16889;67.864;24.990;2023-03-23T16:17:47;-9.70;87.90
30063;DHT22;16889;67.864;24.990;2023-03-23T16:22:33;-9.80;89.80
30063;DHT22;16889;67.864;24.990;2023-03-23T16:27:19;-10.00;90.30
30063;DHT22;16889;67.864;24.990;2023-03-23T16:32:06;-10.10;90.40
30063;DHT22;16889;67.864;24.990;2023-03-23T16:36:52;-10.30;90.90
30063;DHT22;16889;67.864;24.990;2023-03-23T16:41:38;-10.40;91.80
30063;DHT22;16889;67.864;24.990;2023-03-23T16:46:25;-10.60;92.30
30063;DHT22;16889;67.864;24.990;2023-03-23T16:51:11;-10.80;91.90
30063;DHT22;16889;67.864;24.990;2023-03-23T16:55:57;-11.10;92.10
30063;DHT22;16889;67.864;24.990;2023-03-23T17:00:46;-11.30;92.00
30063;DHT22;16889;67.864;24.990;2023-03-23T17:05:34;-11.50;92.60
30063;DHT22;16889;67.864;24.990;2023-03-23T17:10:22;-11.80;92.20
30063;DHT22;16889;67.864;24.990;2023-03-23T17:15:10;-12.20;92.10
30063;DHT22;16889;67.864;24.990;2023-03-23T17:19:56;-12.50;92.40
30063;DHT22;16889;67.864;24.990;2023-03-23T17:24:42;-13.00;93.90
30063;DHT22;16889;67.864;24.990;2023-03-23T17:29:28;-13.20;94.40
30063;DHT22;16889;67.864;24.990;2023-03-23T17:34:16;-13.40;94.40
30063;DHT22;16889;67.864;24.990;2023-03-23T17:39:02;-13.80;94.40
30063;DHT22;16889;67.864;24.990;2023-03-23T17:43:48;-14.10;95.40
30063;DHT22;16889;67.864;24.990;2023-03-23T17:48:34;-14.30;96.10
30063;DHT22;16889;67.864;24.990;2023-03-23T17:53:20;-14.50;96.20
30063;DHT22;16889;67.864;24.990;2023-03-23T17:58:06;-14.70;95.90
30063;DHT22;16889;67.864;24.990;2023-03-23T18:02:52;-15.00;96.00
30063;DHT22;16889;67.864;24.990;2023-03-23T18:07:38;-15.40;95.90
30063;DHT22;16889;67.864;24.990;2023-03-23T18:12:25;-15.60;96.30
30063;DHT22;16889;67.864;24.990;2023-03-23T18:17:11;-15.90;96.00
30063;DHT22;16889;67.864;24.990;2023-03-23T18:21:57;-16.10;96.60
30063;DHT22;16889;67.864;24.990;2023-03-23T18:26:43;-16.50;95.70
30063;DHT22;16889;67.864;24.990;2023-03-23T18:31:29;-17.40;96.40
30063;DHT22;16889;67.864;24.990;2023-03-23T18:36:17;-18.00;96.70
30063;DHT22;16889;67.864;24.990;2023-03-23T18:41:08;-18.20;98.90
30063;DHT22;16889;67.864;24.990;2023-03-23T18:45:55;-18.30;99.30
30063;DHT22;16889;67.864;24.990;2023-03-23T18:50:49;-18.40;99.90
30063;DHT22;16889;67.864;24.990;2023-03-23T18:55:35;-18.60;99.90
30063;DHT22;16889;67.864;24.990;2023-03-23T19:00:21;-19.00;99.90
30063;DHT22;16889;67.864;24.990;2023-03-23T19:05:08;-19.20;99.90
30063;DHT22;16889;67.864;24.990;2023-03-23T19:09:54;-19.30;99.90
30063;DHT22;16889;67.864;24.990;2023-03-23T19:14:40;-19.50;99.90
30063;DHT22;16889;67.864;24.990;2023-03-23T19:19:26;-19.50;99.90
30063;DHT22;16889;67.864;24.990;2023-03-23T19:24:12;-19.70;99.90
30063;DHT22;16889;67.864;24.990;2023-03-23T19:28:59;-19.90;99.90
30063;DHT22;16889;67.864;24.990;2023-03-23T19:33:45;-20.00;99.90
30063;DHT22;16889;67.864;24.990;2023-03-23T19:38:31;-20.20;99.90
30063;DHT22;16889;67.864;24.990;2023-03-23T19:43:17;-20.40;99.90
30063;DHT22;16889;67.864;24.990;2023-03-23T19:48:03;-20.40;99.90
30063;DHT22;16889;67.864;24.990;2023-03-23T19:52:49;-20.40;99.90
30063;DHT22;16889;67.864;24.990;2023-03-23T19:57:35;-20.60;99.90
30063;DHT22;16889;67.864;24.990;2023-03-23T20:02:22;-20.70;99.60
30063;DHT22;16889;67.864;24.990;2023-03-23T20:07:09;-20.70;99.70
30063;DHT22;16889;67.864;24.990;2023-03-23T20:11:55;-21.10;98.30
30063;DHT22;16889;67.864;24.990;2023-03-23T20:16:41;-22.00;97.50
30063;DHT22;16889;67.864;24.990;2023-03-23T20:21:27;-22.40;98.70
30063;DHT22;16889;67.864;24.990;2023-03-23T20:26:17;-22.40;99.30
30063;DHT22;16889;67.864;24.990;2023-03-23T20:31:24;-22.60;98.50
30063;DHT22;16889;67.864;24.990;2023-03-23T20:36:12;-22.60;99.90
30063;DHT22;16889;67.864;24.990;2023-03-23T20:40:59;-22.80;99.90
30063;DHT22;16889;67.864;24.990;2023-03-23T20:45:47;-22.80;99.90
30063;DHT22;16889;67.864;24.990;2023-03-23T20:50:33;-22.60;99.90
30063;DHT22;16889;67.864;24.990;2023-03-23T20:55:19;-22.70;99.90
30063;DHT22;16889;67.864;24.990;2023-03-23T21:00:05;-22.70;99.90
30063;DHT22;16889;67.864;24.990;2023-03-23T21:04:52;-22.70;99.90
30063;DHT22;16889;67.864;24.990;2023-03-23T21:09:39;-22.90;98.80
30063;DHT22;16889;67.864;24.990;2023-03-23T21:14:25;-23.50;96.40
30063;DHT22;16889;67.864;24.990;2023-03-23T21:19:11;-24.10;96.00
30063;DHT22;16889;67.864;24.990;2023-03-23T21:23:57;-24.00;97.30
30063;DHT22;16889;67.864;24.990;2023-03-23T21:28:44;-24.10;98.30
30063;DHT22;16889;67.864;24.990;2023-03-23T21:33:31;-24.30;98.80
30063;DHT22;16889;67.864;24.990;2023-03-23T21:38:18;-24.20;99.40
30063;DHT22;16889;67.864;24.990;2023-03-23T21:43:04;-24.20;98.00
30063;DHT22;16889;67.864;24.990;2023-03-23T21:47:50;-24.30;97.40
30063;DHT22;16889;67.864;24.990;2023-03-23T21:52:42;-24.30;96.40
30063;DHT22;16889;67.864;24.990;2023-03-23T21:57:29;-24.50;94.90
30063;DHT22;16889;67.864;24.990;2023-03-23T22:02:15;-24.90;94.30
30063;DHT22;16889;67.864;24.990;2023-03-23T22:07:02;-25.00;97.10
30063;DHT22;16889;67.864;24.990;2023-03-23T22:11:48;-25.00;97.00
30063;DHT22;16889;67.864;24.990;2023-03-23T22:16:34;-25.50;95.80
30063;DHT22;16889;67.864;24.990;2023-03-23T22:21:21;-25.70;97.20
30063;DHT22;16889;67.864;24.990;2023-03-23T22:26:11;-25.50;97.50
30063;DHT22;16889;67.864;24.990;2023-03-23T22:31:06;-25.50;96.90
30063;DHT22;16889;67.864;24.990;2023-03-23T22:35:52;-25.60;96.10
30063;DHT22;16889;67.864;24.990;2023-03-23T22:40:38;-25.80;97.40
30063;DHT22;16889;67.864;24.990;2023-03-23T22:45:27;-26.10;96.80
30063;DHT22;16889;67.864;24.990;2023-03-23T22:50:13;-26.30;97.50
30063;DHT22;16889;67.864;24.990;2023-03-23T22:55:00;-25.90;96.60
30063;DHT22;16889;67.864;24.990;2023-03-23T22:59:49;-26.00;95.50
30063;DHT22;16889;67.864;24.990;2023-03-23T23:04:35;-26.50;94.60
30063;DHT22;16889;67.864;24.990;2023-03-23T23:09:21;-27.50;93.80
30063;DHT22;16889;67.864;24.990;2023-03-23T23:14:07;-27.80;96.30
30063;DHT22;16889;67.864;24.990;2023-03-23T23:18:54;-27.40;98.00
30063;DHT22;16889;67.864;24.990;2023-03-23T23:23:40;-27.20;97.10
30063;DHT22;16889;67.864;24.990;2023-03-23T23:28:27;-27.00;96.70
30063;DHT22;16889;67.864;24.990;2023-03-23T23:33:14;-26.90;95.40
30063;DHT22;16889;67.864;24.990;2023-03-23T23:38:00;-27.00;94.70
30063;DHT22;16889;67.864;24.990;2023-03-23T23:42:48;-27.20;94.10
30063;DHT22;16889;67.864;24.990;2023-03-23T23:47:35;-27.80;94.30
30063;DHT22;16889;67.864;24.990;2023-03-23T23:52:21;-28.10;95.60
30063;DHT22;16889;67.864;24.990;2023-03-23T23:57:07;-28.30;96.60
